Terminal Aerodrome Forecast
Issued by NWS Upton, NY

Home | Current Version | Previous Version | Text Only | Print | Product List | Glossary On
Versions: 1 2 3 4 5 6 7 8 9 10 11 12 13 14 15 16 17 18 19 20 21 22 23 24 25 26
000
FTUS41 KOKX 242349
TAFLGA
TAF
KLGA 242349Z 2500/2524 34019G27KT P6SM FEW080
     FM250300 33016G24KT P6SM SKC
     FM250600 31012KT P6SM SKC
     FM251700 30012G19KT P6SM FEW050 SCT250
     FM252200 30010KT P6SM FEW050 SCT250=

USA.gov is the U.S. government's official web portal to all federal, state and local government web resources and services.